Time;durP1;ratioP1;P1;durP2;ratioP2;P2;SDS_P1;SDS_P2;PMS_P1;PMS_P2;Temp;Humidity;BMP_temperature;BMP_pressure;BME280_temperature;BME280_humidity;BME280_pressure;Samples;Min_cycle;Max_cycle;Signal;HPM_P1;HPM_P2
2022/06/18 00:00:58;;;;;;;5.32;3.10;;;25.10;77.80;;;;;;5018243;28;20049;-78
2022/06/18 00:03:24;;;;;;;5.47;3.08;;;25.30;80.60;;;;;;5031278;28;20410;-79
2022/06/18 00:05:52;;;;;;;7.25;3.38;;;25.50;78.10;;;;;;5047865;28;20442;-81
2022/06/18 00:08:24;;;;;;;5.07;3.05;;;25.00;77.70;;;;;;5015139;28;20514;-81
2022/06/18 00:13:39;;;;;;;5.30;3.15;;;25.30;78.10;;;;;;5034849;28;20099;-82
2022/06/18 00:13:47;;;;;;;5.97;3.08;;;25.30;80.50;;;;;;5046862;28;20045;-68
2022/06/18 00:16:16;;;;;;;6.80;3.00;;;25.20;77.70;;;;;;5048441;28;20102;-68
2022/06/18 00:18:42;;;;;;;6.10;3.40;;;25.10;80.50;;;;;;5033368;28;20120;-80
2022/06/18 00:21:08;;;;;;;5.65;3.45;;;24.90;80.90;;;;;;5034201;28;20131;-76
2022/06/18 00:23:33;;;;;;;5.43;3.40;;;25.10;77.40;;;;;;5032818;28;20052;-78
2022/06/18 00:25:59;;;;;;;5.03;3.20;;;25.10;77.50;;;;;;5050435;28;20470;-82
2022/06/18 00:28:27;;;;;;;5.38;2.80;;;25.10;77.40;;;;;;5051828;28;20106;-82
2022/06/18 00:30:53;;;;;;;5.28;3.35;;;25.20;80.90;;;;;;5052484;28;20099;-76
2022/06/18 00:33:19;;;;;;;6.38;3.03;;;25.10;80.90;;;;;;5056452;28;20486;-82
2022/06/18 00:35:45;;;;;;;6.63;3.65;;;25.10;80.90;;;;;;5052314;28;20061;-80
2022/06/18 00:38:18;;;;;;;5.32;2.90;;;25.30;77.60;;;;;;5047946;28;20115;-82
2022/06/18 00:40:43;;;;;;;5.68;3.03;;;25.00;77.70;;;;;;5020769;28;20053;-82
2022/06/18 00:43:32;;;;;;;5.68;3.20;;;25.10;77.40;;;;;;5037854;28;20137;-74
2022/06/18 00:46:20;;;;;;;6.05;3.30;;;25.10;78.30;;;;;;5051820;28;20102;-69
2022/06/18 00:48:59;;;;;;;5.97;3.65;;;25.30;80.50;;;;;;5038139;28;20084;-70
2022/06/18 00:51:28;;;;;;;5.75;3.13;;;25.10;78.10;;;;;;5034764;28;20434;-80
2022/06/18 00:53:57;;;;;;;5.63;3.33;;;24.90;77.70;;;;;;5013847;28;20045;-83
2022/06/18 00:56:29;;;;;;;7.35;3.30;;;25.10;77.80;;;;;;5054143;28;20052;-80
2022/06/18 00:59:04;;;;;;;5.88;3.28;;;25.10;77.80;;;;;;5020008;28;20115;-68
2022/06/18 01:01:35;;;;;;;6.95;3.45;;;25.30;78.10;;;;;;5040423;28;20037;-82
2022/06/18 01:04:19;;;;;;;6.03;3.25;;;25.10;77.90;;;;;;5036342;28;20045;-82
2022/06/18 01:06:44;;;;;;;4.85;3.45;;;25.10;77.70;;;;;;5055064;28;20084;-82
2022/06/18 01:09:13;;;;;;;5.47;3.00;;;25.00;77.40;;;;;;5052665;28;20092;-66
2022/06/18 01:11:39;;;;;;;6.47;3.40;;;25.40;78.00;;;;;;5049642;28;20091;-82
2022/06/18 01:14:07;;;;;;;5.57;3.15;;;25.00;77.30;;;;;;5029689;28;20088;-80
2022/06/18 01:16:33;;;;;;;6.22;3.30;;;25.00;80.50;;;;;;5052571;28;20041;-79
2022/06/18 01:18:59;;;;;;;5.75;3.47;;;;;;;;;;5053135;28;20060;-83
2022/06/18 01:21:34;;;;;;;6.68;3.50;;;25.30;75.80;;;;;;5052736;28;20083;-80
2022/06/18 01:24:16;;;;;;;4.95;3.13;;;25.20;77.90;;;;;;5035214;28;20072;-81
2022/06/18 01:26:43;;;;;;;5.53;3.20;;;25.20;81.00;;;;;;5049738;28;20106;-82
2022/06/18 01:29:09;;;;;;;6.60;3.40;;;25.00;77.80;;;;;;5047640;28;20692;-81
2022/06/18 01:31:35;;;;;;;5.68;3.40;;;25.30;77.80;;;;;;5053745;28;20106;-79
2022/06/18 01:34:01;;;;;;;5.68;3.58;;;25.10;77.50;;;;;;5053086;28;20459;-71
2022/06/18 01:36:29;;;;;;;6.13;3.50;;;24.90;77.70;;;;;;5019054;28;20045;-82
2022/06/18 01:38:55;;;;;;;5.80;3.40;;;25.20;80.80;;;;;;5020602;28;20074;-82
2022/06/18 01:44:17;;;;;;;5.50;3.35;;;25.00;76.20;;;;;;5026175;28;20056;-68
2022/06/18 01:46:44;;;;;;;5.60;3.40;;;24.90;77.70;;;;;;5017234;28;20471;-67
2022/06/18 01:49:11;;;;;;;5.93;3.45;;;25.10;77.80;;;;;;5020206;28;20106;-68
2022/06/18 01:51:38;;;;;;;6.22;3.30;;;25.20;81.00;;;;;;5051387;28;20099;-81
2022/06/18 01:54:10;;;;;;;6.18;3.30;;;25.10;77.80;;;;;;5036617;28;20071;-82
2022/06/18 01:56:41;;;;;;;5.70;3.85;;;24.90;76.20;;;;;;5034224;28;20087;-81
2022/06/18 01:59:25;;;;;;;4.93;3.30;;;24.80;77.80;;;;;;5051211;28;20045;-79
2022/06/18 02:01:51;;;;;;;5.60;3.50;;;25.00;81.00;;;;;;5024802;28;20037;-66
2022/06/18 02:04:18;;;;;;;6.85;3.67;;;25.20;77.60;;;;;;5053804;28;20622;-81
2022/06/18 02:06:44;;;;;;;6.50;3.50;;;25.10;80.70;;;;;;5017741;28;20044;-78
2022/06/18 02:09:13;;;;;;;5.85;3.42;;;25.00;80.70;;;;;;5018358;28;20044;-80
2022/06/18 02:11:39;;;;;;;6.32;3.83;;;24.80;77.90;;;;;;5018738;28;20487;-80
2022/06/18 02:14:07;;;;;;;6.22;3.50;;;25.20;77.70;;;;;;5019971;28;20053;-81
2022/06/18 02:16:39;;;;;;;6.53;3.47;;;25.00;80.70;;;;;;5051004;28;20399;-79
2022/06/18 02:19:05;;;;;;;;;;;25.10;78.20;;;;;;5011582;28;20056;-75
2022/06/18 02:21:31;;;;;;;7.40;3.30;;;25.00;78.20;;;;;;5046998;28;20436;-72
2022/06/18 02:23:56;;;;;;;8.38;3.92;;;24.80;80.70;;;;;;5051719;28;20119;-81
2022/06/18 02:26:25;;;;;;;5.65;3.55;;;25.00;78.00;;;;;;5052407;28;20049;-81
2022/06/18 02:28:50;;;;;;;6.18;3.60;;;25.00;81.10;;;;;;5014995;28;20048;-81
2022/06/18 02:31:25;;;;;;;5.97;3.88;;;24.90;77.80;;;;;;5033537;28;20045;-81
2022/06/18 02:33:56;;;;;;;8.00;3.63;;;25.00;76.70;;;;;;5020686;28;20059;-82
2022/06/18 02:36:29;;;;;;;5.65;3.50;;;24.90;78.10;;;;;;5048589;28;20045;-81
2022/06/18 02:39:01;;;;;;;6.97;3.88;;;25.10;76.70;;;;;;5018287;28;20053;-76
2022/06/18 02:41:27;;;;;;;4.53;3.30;;;24.80;80.70;;;;;;5008205;28;20056;-81
2022/06/18 02:43:52;;;;;;;6.05;3.85;;;25.10;77.80;;;;;;5035711;28;20053;-80
2022/06/18 02:46:18;;;;;;;5.60;3.45;;;25.10;77.90;;;;;;5051811;28;20094;-78
2022/06/18 02:48:44;;;;;;;5.25;3.65;;;25.10;80.80;;;;;;5014610;28;20077;-79
2022/06/18 02:51:11;;;;;;;5.40;3.38;;;25.10;80.90;;;;;;5030535;28;20042;-70
2022/06/18 02:53:36;;;;;;;5.63;3.25;;;25.10;78.20;;;;;;5038189;28;20049;-80
2022/06/18 02:56:04;;;;;;;6.07;3.72;;;24.90;77.70;;;;;;5051910;28;20036;-81
2022/06/18 02:58:32;;;;;;;6.05;4.03;;;25.00;80.80;;;;;;5035188;28;20052;-81
2022/06/18 03:01:03;;;;;;;5.15;3.25;;;24.90;78.10;;;;;;5049903;28;20045;-79
2022/06/18 03:03:31;;;;;;;7.07;4.13;;;25.00;78.30;;;;;;5052257;28;20426;-79
2022/06/18 03:05:57;;;;;;;7.78;3.38;;;25.10;78.30;;;;;;5052669;28;20053;-81
2022/06/18 03:08:23;;;;;;;5.57;3.78;;;24.90;77.20;;;;;;5051206;28;20059;-80
2022/06/18 03:13:36;;;;;;;5.60;3.85;;;24.80;80.90;;;;;;5050288;28;20131;-81
2022/06/18 03:16:01;;;;;;;6.68;3.85;;;25.10;78.10;;;;;;5018629;28;20045;-81
2022/06/18 03:18:28;;;;;;;6.53;3.83;;;24.70;77.70;;;;;;5052144;28;20051;-78
2022/06/18 03:21:24;;;;;;;5.30;3.83;;;25.10;81.20;;;;;;5017621;28;20057;-79
2022/06/18 03:23:50;;;;;;;6.75;3.80;;;24.90;77.00;;;;;;5048467;28;20516;-81
2022/06/18 03:26:16;;;;;;;6.25;3.67;;;25.10;78.10;;;;;;5051315;28;20084;-79
2022/06/18 03:28:42;;;;;;;6.68;4.05;;;25.10;78.20;;;;;;5049287;28;20166;-80
2022/06/18 03:31:08;;;;;;;6.70;3.67;;;24.90;78.10;;;;;;5034562;28;20045;-81
2022/06/18 03:33:33;;;;;;;7.05;3.83;;;25.00;78.00;;;;;;5051774;28;20048;-70
2022/06/18 03:35:59;;;;;;;8.32;4.00;;;24.90;78.20;;;;;;5046592;28;20056;-80
2022/06/18 03:38:25;;;;;;;6.47;4.10;;;24.70;77.90;;;;;;5020473;28;20055;-81
2022/06/18 03:40:51;;;;;;;7.95;4.18;;;24.90;81.40;;;;;;5033633;28;20423;-75
2022/06/18 03:43:21;;;;;;;8.68;3.83;;;25.00;81.40;;;;;;5050852;28;20622;-73
2022/06/18 03:45:49;;;;;;;7.28;3.97;;;25.00;81.20;;;;;;5049324;28;20089;-66
2022/06/18 03:48:27;;;;;;;6.47;3.92;;;24.90;78.20;;;;;;5051171;28;20080;-70
2022/06/18 03:50:53;;;;;;;7.35;3.33;;;24.60;76.80;;;;;;5035345;28;20049;-70
2022/06/18 03:53:19;;;;;;;7.18;4.07;;;24.90;77.90;;;;;;5050051;28;20135;-74
2022/06/18 03:55:44;;;;;;;7.65;3.88;;;24.80;78.00;;;;;;5049732;28;20495;-71
2022/06/18 03:58:10;;;;;;;8.77;4.18;;;24.80;77.90;;;;;;5024799;28;20442;-78
2022/06/18 04:00:36;;;;;;;5.75;3.83;;;25.10;78.20;;;;;;5041358;28;20071;-74
2022/06/18 04:03:03;;;;;;;7.38;4.15;;;24.90;77.90;;;;;;5037594;28;20041;-79
2022/06/18 04:05:30;;;;;;;6.22;4.10;;;24.90;78.00;;;;;;5038581;28;20120;-75
2022/06/18 04:07:55;;;;;;;7.40;4.43;;;24.90;78.20;;;;;;5037621;28;20044;-74
2022/06/18 04:10:21;;;;;;;5.95;4.20;;;25.00;78.10;;;;;;5056393;28;20087;-79
2022/06/18 04:12:47;;;;;;;7.18;4.28;;;25.10;78.10;;;;;;5057553;28;20041;-75
2022/06/18 04:15:14;;;;;;;6.78;4.13;;;25.20;80.90;;;;;;5053011;28;20083;-76
2022/06/18 04:17:40;;;;;;;6.38;4.20;;;25.20;78.10;;;;;;5048078;28;20387;-69
2022/06/18 04:20:07;;;;;;;8.18;4.13;;;25.10;81.40;;;;;;5026307;28;20050;-74
2022/06/18 04:22:33;;;;;;;7.80;4.55;;;25.10;77.70;;;;;;5054905;28;20088;-76
2022/06/18 04:24:58;;;;;;;6.32;4.95;;;25.40;81.10;;;;;;5053612;28;20072;-78
2022/06/18 04:27:24;;;;;;;7.18;4.30;;;25.30;78.10;;;;;;5052319;28;20057;-76
2022/06/18 04:29:50;;;;;;;6.75;4.40;;;25.00;77.90;;;;;;5036670;28;20064;-75
2022/06/18 04:32:15;;;;;;;7.50;4.50;;;25.40;78.00;;;;;;5054590;28;20049;-72
2022/06/18 04:34:41;;;;;;;7.10;4.70;;;25.10;77.90;;;;;;5049685;28;20036;-79
2022/06/18 04:37:07;;;;;;;7.45;4.18;;;25.10;77.80;;;;;;5038080;28;20060;-77
2022/06/18 04:39:32;;;;;;;7.43;4.97;;;25.40;78.10;;;;;;5034035;28;20055;-71
2022/06/18 04:41:58;;;;;;;7.82;4.97;;;25.20;77.80;;;;;;5053605;28;20128;-75
2022/06/18 04:44:24;;;;;;;6.97;4.70;;;25.20;80.80;;;;;;5053818;28;20081;-72
2022/06/18 04:46:50;;;;;;;6.97;4.32;;;25.40;77.90;;;;;;5051899;28;20044;-72
2022/06/18 04:49:15;;;;;;;7.93;4.30;;;25.40;78.00;;;;;;5054015;28;20041;-70
2022/06/18 04:51:41;;;;;;;8.88;3.92;;;25.60;77.80;;;;;;5047275;28;20121;-69
2022/06/18 04:54:07;;;;;;;5.82;4.40;;;25.70;77.90;;;;;;5054527;28;20044;-69
2022/06/18 04:56:32;;;;;;;7.70;4.43;;;25.70;77.60;;;;;;5036118;28;20495;-70
2022/06/18 04:58:59;;;;;;;6.97;4.43;;;26.00;78.00;;;;;;5021871;28;20045;-73
2022/06/18 05:01:29;;;;;;;6.28;4.18;;;26.00;77.50;;;;;;5053159;28;20055;-71
2022/06/18 05:03:55;;;;;;;7.10;3.70;;;26.10;77.70;;;;;;5053904;28;20095;-71
2022/06/18 05:06:21;;;;;;;6.53;3.80;;;26.00;76.90;;;;;;5053267;28;20037;-71
2022/06/18 05:08:47;;;;;;;6.63;4.53;;;26.20;76.90;;;;;;5054574;28;20049;-72
2022/06/18 05:11:12;;;;;;;7.05;4.30;;;26.30;76.70;;;;;;5052245;28;20076;-70
2022/06/18 05:13:38;;;;;;;6.68;4.50;;;26.30;76.60;;;;;;5043453;28;20056;-71
2022/06/18 05:16:04;;;;;;;5.70;4.05;;;26.40;76.40;;;;;;5046767;28;20071;-72
2022/06/18 05:18:33;;;;;;;6.40;4.32;;;26.40;76.50;;;;;;5035792;28;20452;-73
2022/06/18 05:20:58;;;;;;;6.60;3.78;;;26.50;76.50;;;;;;5032530;28;20110;-71
2022/06/18 05:23:24;;;;;;;7.20;4.50;;;26.70;76.20;;;;;;5064099;28;20123;-72
2022/06/18 05:25:58;;;;;;;8.57;4.75;;;26.60;75.60;;;;;;5043221;28;20045;-66
2022/06/18 05:28:24;;;;;;;7.20;4.22;;;26.70;76.20;;;;;;5010552;28;20056;-79
2022/06/18 05:30:50;;;;;;;6.55;4.07;;;26.90;75.70;;;;;;5020241;28;20378;-76
2022/06/18 05:33:15;;;;;;;7.95;4.80;;;26.90;75.70;;;;;;5035693;28;20406;-79
2022/06/18 05:35:42;;;;;;;8.38;4.75;;;27.20;75.60;;;;;;5053046;28;20049;-78
2022/06/18 05:38:09;;;;;;;6.80;4.32;;;27.00;75.50;;;;;;5053752;28;20083;-79
2022/06/18 05:40:35;;;;;;;5.75;3.90;;;26.80;75.40;;;;;;5049445;28;20116;-69
2022/06/18 05:43:01;;;;;;;7.28;4.40;;;27.30;75.30;;;;;;5042232;28;20175;-68
2022/06/18 05:45:27;;;;;;;7.65;4.82;;;27.30;75.10;;;;;;5054248;28;20083;-79
2022/06/18 05:47:53;;;;;;;6.10;4.22;;;27.30;75.10;;;;;;5053500;28;20045;-74
2022/06/18 05:50:19;;;;;;;7.15;4.10;;;27.30;75.10;;;;;;5035173;28;20041;-72
2022/06/18 05:52:44;;;;;;;6.80;4.03;;;27.20;74.80;;;;;;5053938;28;20057;-68
2022/06/18 05:55:10;;;;;;;6.50;4.20;;;27.40;74.90;;;;;;5036202;28;20048;-77
2022/06/18 05:57:52;;;;;;;6.88;4.03;;;27.40;74.70;;;;;;5054300;28;20071;-73
2022/06/18 06:00:19;;;;;;;8.10;4.25;;;27.60;75.10;;;;;;5033377;28;20045;-75
2022/06/18 06:02:45;;;;;;;8.20;4.60;;;27.50;74.70;;;;;;5053523;28;20052;-69
2022/06/18 06:05:10;;;;;;;9.05;5.10;;;27.70;74.70;;;;;;5051679;28;20159;-80
2022/06/18 06:07:36;;;;;;;7.57;4.43;;;27.60;74.50;;;;;;5055125;28;20047;-77
2022/06/18 06:12:52;;;;;;;9.10;4.38;;;27.50;74.50;;;;;;5026510;28;20049;-79
2022/06/18 06:15:18;;;;;;;8.32;4.93;;;27.90;74.60;;;;;;5050865;28;20403;-72
2022/06/18 06:17:44;;;;;;;7.97;4.40;;;27.90;74.30;;;;;;5047788;28;20067;-78
2022/06/18 06:20:27;;;;;;;7.95;4.57;;;27.70;74.20;;;;;;5050019;28;20045;-77
2022/06/18 06:22:53;;;;;;;6.00;4.35;;;27.70;72.90;;;;;;5017294;28;20061;-76
2022/06/18 06:25:19;;;;;;;8.75;4.80;;;28.00;74.80;;;;;;5037063;28;20041;-72
2022/06/18 06:27:45;;;;;;;8.45;4.65;;;27.80;73.80;;;;;;5068819;28;20055;-76
2022/06/18 06:30:12;;;;;;;8.60;4.88;;;27.80;73.60;;;;;;5050542;28;20037;-70
2022/06/18 06:32:38;;;;;;;8.85;4.53;;;28.00;74.10;;;;;;5067932;28;20124;-69
2022/06/18 06:35:04;;;;;;;11.40;4.90;;;28.00;74.10;;;;;;5036654;28;20204;-71
2022/06/18 06:37:30;;;;;;;10.25;5.07;;;27.80;73.70;;;;;;5048777;28;20064;-69
2022/06/18 06:39:56;;;;;;;9.98;4.88;;;27.90;73.90;;;;;;5052814;28;20041;-67
2022/06/18 06:42:21;;;;;;;10.20;5.70;;;27.80;73.80;;;;;;5049964;28;20040;-71
2022/06/18 06:44:47;;;;;;;11.35;5.60;;;28.10;74.00;;;;;;5051653;28;20052;-80
2022/06/18 06:47:13;;;;;;;10.65;5.88;;;27.90;73.30;;;;;;5052978;28;20048;-64
2022/06/18 06:49:39;;;;;;;12.90;6.43;;;28.00;74.00;;;;;;5031677;28;20449;-65
2022/06/18 06:52:04;;;;;;;15.02;6.10;;;28.20;73.90;;;;;;5043787;28;20096;-74
2022/06/18 06:54:30;;;;;;;12.48;6.28;;;28.20;73.90;;;;;;5052761;28;20059;-74
2022/06/18 06:59:40;;;;;;;14.80;7.78;;;28.20;73.00;;;;;;5053236;28;20180;-65
2022/06/18 07:02:14;;;;;;;15.98;7.35;;;28.30;74.10;;;;;;5051415;28;20125;-67
2022/06/18 07:04:40;;;;;;;13.25;6.75;;;28.00;74.60;;;;;;5052904;28;20072;-65
2022/06/18 07:07:06;;;;;;;12.93;7.40;;;28.10;74.00;;;;;;5048553;28;20052;-66
2022/06/18 07:09:31;;;;;;;14.23;6.88;;;28.10;74.00;;;;;;5037163;28;20049;-66
2022/06/18 07:11:57;;;;;;;12.63;6.93;;;28.20;74.00;;;;;;5041044;28;20045;-65
2022/06/18 07:14:23;;;;;;;13.02;6.55;;;28.30;74.20;;;;;;5052629;28;20056;-65
2022/06/18 07:16:52;;;;;;;12.10;6.70;;;28.10;74.10;;;;;;5051540;28;20140;-65
2022/06/18 07:19:18;;;;;;;15.30;7.45;;;28.20;74.30;;;;;;5035886;28;20053;-65
2022/06/18 07:21:44;;;;;;;13.60;6.32;;;28.30;74.10;;;;;;5035508;28;20518;-65
2022/06/18 07:24:09;;;;;;;11.88;6.75;;;28.20;73.90;;;;;;5051139;28;20384;-65
2022/06/18 07:26:35;;;;;;;12.80;6.90;;;28.00;74.00;;;;;;5053643;28;20052;-65
2022/06/18 07:29:01;;;;;;;10.45;6.22;;;28.40;74.20;;;;;;5053594;28;20052;-65
2022/06/18 07:31:29;;;;;;;12.85;6.20;;;28.20;74.00;;;;;;5050133;28;20053;-65
2022/06/18 07:33:55;;;;;;;12.52;5.70;;;28.20;74.20;;;;;;5041017;28;20728;-65
2022/06/18 07:36:21;;;;;;;13.80;5.80;;;28.20;74.00;;;;;;5035447;28;20075;-65
2022/06/18 07:38:47;;;;;;;10.48;5.70;;;28.20;73.80;;;;;;5051880;28;20044;-65
2022/06/18 07:41:15;;;;;;;10.75;6.43;;;28.10;73.80;;;;;;5029454;28;20103;-66
2022/06/18 07:43:49;;;;;;;11.20;5.50;;;28.10;73.90;;;;;;5027951;28;20041;-67
2022/06/18 07:46:15;;;;;;;10.52;5.70;;;28.50;74.30;;;;;;5032161;28;20057;-66
2022/06/18 07:48:41;;;;;;;10.60;5.70;;;28.30;73.50;;;;;;5032010;28;20045;-65
2022/06/18 07:51:07;;;;;;;12.40;5.95;;;28.40;73.90;;;;;;5031989;28;20126;-66
2022/06/18 07:53:33;;;;;;;9.35;6.03;;;28.40;73.40;;;;;;5003397;28;20048;-65
2022/06/18 07:55:59;;;;;;;10.52;6.18;;;28.80;73.80;;;;;;5031318;28;20044;-65
2022/06/18 07:58:26;;;;;;;13.65;6.13;;;28.60;73.60;;;;;;5025845;28;20068;-65
2022/06/18 08:00:52;;;;;;;12.40;5.90;;;28.80;73.80;;;;;;5050819;28;20052;-65
2022/06/18 08:03:18;;;;;;;9.23;5.65;;;28.40;73.40;;;;;;5051446;28;20516;-65
2022/06/18 08:05:44;;;;;;;12.77;5.60;;;28.40;73.30;;;;;;5050635;28;20080;-65
2022/06/18 08:08:12;;;;;;;12.35;6.07;;;28.60;73.20;;;;;;5050131;28;20380;-64
2022/06/18 08:10:37;;;;;;;11.85;5.80;;;28.70;73.40;;;;;;5051127;28;20056;-65
2022/06/18 08:13:03;;;;;;;9.23;5.55;;;28.80;73.40;;;;;;5018365;28;20053;-67
2022/06/18 08:15:30;;;;;;;10.35;5.15;;;28.70;73.40;;;;;;5008674;28;20530;-65
2022/06/18 08:17:56;;;;;;;10.15;5.22;;;28.90;73.80;;;;;;5036747;28;20073;-65
2022/06/18 08:20:22;;;;;;;9.80;5.10;;;28.60;73.30;;;;;;5049924;28;20064;-66
2022/06/18 08:22:48;;;;;;;9.43;5.57;;;28.80;73.40;;;;;;5050840;28;20487;-65
2022/06/18 08:25:14;;;;;;;11.10;5.53;;;28.90;73.60;;;;;;5051126;28;20092;-67
2022/06/18 08:27:41;;;;;;;9.75;5.50;;;29.00;73.40;;;;;;5051621;28;20094;-65
2022/06/18 08:30:07;;;;;;;8.70;5.10;;;28.80;73.40;;;;;;5035156;28;20056;-65
2022/06/18 08:32:33;;;;;;;8.07;5.07;;;28.90;72.90;;;;;;5041558;28;20147;-65
2022/06/18 08:34:59;;;;;;;5.72;4.50;;;28.70;73.30;;;;;;5033185;28;20148;-65
2022/06/18 08:37:24;;;;;;;8.85;5.07;;;28.80;73.00;;;;;;5036026;28;20053;-67
2022/06/18 08:39:50;;;;;;;10.32;5.10;;;28.90;73.30;;;;;;5045705;28;20048;-66
2022/06/18 08:42:26;;;;;;;9.05;4.85;;;28.90;73.00;;;;;;5049323;28;20052;-70
2022/06/18 08:45:24;;;;;;;7.97;4.60;;;29.10;72.10;;;;;;5035182;28;20039;-68
2022/06/18 08:48:16;;;;;;;8.95;4.60;;;29.20;72.50;;;;;;5051113;28;20053;-67
2022/06/18 08:51:01;;;;;;;8.02;4.25;;;28.90;73.70;;;;;;5036456;28;20491;-66
2022/06/18 08:53:53;;;;;;;7.35;4.40;;;28.90;73.90;;;;;;5068536;28;20088;-67
2022/06/18 08:56:33;;;;;;;8.07;4.65;;;28.80;72.30;;;;;;5055663;28;20045;-65
2022/06/18 08:59:20;;;;;;;7.00;4.68;;;29.00;72.30;;;;;;5054740;28;20509;-67
2022/06/18 09:01:51;;;;;;;7.55;4.10;;;29.20;72.50;;;;;;5054796;28;20056;-68
2022/06/18 09:04:22;;;;;;;7.05;4.35;;;29.00;73.60;;;;;;5018756;28;20398;-68
2022/06/18 09:07:28;;;;;;;6.80;4.10;;;28.80;71.90;;;;;;5027598;28;20458;-65
2022/06/18 09:10:09;;;;;;;6.13;4.05;;;29.00;72.40;;;;;;5014513;28;20061;-67
2022/06/18 09:12:38;;;;;;;6.90;4.03;;;29.20;72.60;;;;;;5034706;28;20053;-65
2022/06/18 09:15:18;;;;;;;6.60;3.63;;;29.10;73.80;;;;;;5021161;28;20052;-65
2022/06/18 09:17:55;;;;;;;8.75;4.40;;;29.30;73.90;;;;;;5056460;28;20049;-65
2022/06/18 09:20:26;;;;;;;8.50;3.90;;;29.30;72.50;;;;;;5054579;28;20049;-65
2022/06/18 09:22:56;;;;;;;6.72;4.10;;;29.00;74.00;;;;;;5034783;28;20049;-65
2022/06/18 09:25:30;;;;;;;9.90;4.00;;;28.90;74.00;;;;;;5050591;28;20064;-65
2022/06/18 09:28:04;;;;;;;6.18;3.40;;;28.90;72.40;;;;;;5053523;28;20076;-65
2022/06/18 09:30:41;;;;;;;6.72;3.80;;;29.00;74.30;;;;;;5055812;28;20040;-65
2022/06/18 09:33:24;;;;;;;6.82;3.65;;;29.00;72.90;;;;;;5054448;28;20045;-65
2022/06/18 09:36:21;;;;;;;6.78;3.83;;;28.80;72.50;;;;;;5022820;28;20516;-65
2022/06/18 09:38:53;;;;;;;7.00;3.63;;;29.00;73.00;;;;;;5040990;28;20103;-65
2022/06/18 09:41:23;;;;;;;7.10;3.30;;;28.90;72.80;;;;;;5066035;28;20049;-65
2022/06/18 09:43:54;;;;;;;8.45;3.58;;;28.80;72.60;;;;;;5054091;28;20044;-65
2022/06/18 09:46:23;;;;;;;6.35;3.53;;;29.10;74.40;;;;;;5054374;28;20380;-65
2022/06/18 09:48:49;;;;;;;7.32;4.00;;;28.80;74.20;;;;;;5067860;28;20486;-65
2022/06/18 09:51:45;;;;;;;9.50;3.42;;;29.00;74.30;;;;;;5037344;28;20089;-64
2022/06/18 09:54:11;;;;;;;5.53;3.50;;;28.90;73.10;;;;;;5040628;28;20049;-65
2022/06/18 09:56:40;;;;;;;7.50;3.78;;;28.90;74.20;;;;;;5034759;28;20084;-65
2022/06/18 09:59:43;;;;;;;6.50;3.50;;;28.70;74.40;;;;;;5061317;28;20179;-65
2022/06/18 10:02:17;;;;;;;6.65;3.08;;;28.90;75.00;;;;;;4938024;28;20055;-64
2022/06/18 10:07:27;;;;;;;6.30;2.92;;;28.70;73.30;;;;;;4958720;28;20047;-65
2022/06/18 10:10:00;;;;;;;6.15;3.15;;;28.50;74.10;;;;;;4958706;28;20121;-64
2022/06/18 10:12:38;;;;;;;5.00;3.05;;;28.80;75.00;;;;;;4938955;28;20090;-66
2022/06/18 10:15:07;;;;;;;6.60;3.13;;;28.60;73.30;;;;;;4958169;28;20484;-67
2022/06/18 10:17:45;;;;;;;6.30;3.22;;;29.00;74.50;;;;;;4942343;28;20207;-65
2022/06/18 10:20:18;;;;;;;6.38;3.03;;;28.70;73.60;;;;;;4941583;28;20497;-65
2022/06/18 10:23:03;;;;;;;5.68;2.90;;;28.80;73.40;;;;;;4940370;28;20062;-66
2022/06/18 10:26:00;;;;;;;8.15;3.22;;;28.50;73.10;;;;;;4939431;28;20047;-67
2022/06/18 10:28:44;;;;;;;8.13;3.05;;;28.60;73.40;;;;;;4954078;29;20062;-65
2022/06/18 10:31:22;;;;;;;5.95;2.97;;;28.50;75.10;;;;;;4938067;29;20133;-65
2022/06/18 10:34:02;;;;;;;6.40;2.90;;;28.80;73.40;;;;;;4954382;29;20379;-65
2022/06/18 10:36:32;;;;;;;8.60;2.92;;;28.50;73.40;;;;;;4954977;28;20461;-67
2022/06/18 10:39:12;;;;;;;4.60;2.40;;;28.50;74.80;;;;;;4957532;28;20449;-66
2022/06/18 10:41:41;;;;;;;7.07;2.88;;;28.50;73.50;;;;;;4957553;28;20065;-65
2022/06/18 10:44:28;;;;;;;5.78;2.47;;;28.40;73.30;;;;;;4957299;28;20054;-65
2022/06/18 10:47:20;;;;;;;4.75;2.63;;;28.80;74.20;;;;;;4958951;28;20499;-67
2022/06/18 10:49:46;;;;;;;6.80;2.70;;;28.50;75.10;;;;;;4969964;28;20061;-66
2022/06/18 10:52:25;;;;;;;5.80;2.50;;;28.50;75.00;;;;;;4992759;28;20816;-65
2022/06/18 10:55:16;;;;;;;6.10;2.70;;;28.40;75.40;;;;;;4964820;28;20055;-70
2022/06/18 10:57:41;;;;;;;7.10;2.60;;;28.60;74.00;;;;;;4977787;28;20093;-65
2022/06/18 11:00:08;;;;;;;7.03;2.72;;;28.70;75.10;;;;;;4976312;28;20035;-65
2022/06/18 11:02:35;;;;;;;5.85;2.45;;;28.60;74.60;;;;;;4976261;28;20523;-64
2022/06/18 11:05:03;;;;;;;5.28;2.40;;;28.60;75.30;;;;;;5002780;28;20118;-65
2022/06/18 11:07:31;;;;;;;4.85;2.85;;;28.40;75.20;;;;;;5054103;28;20077;-64
2022/06/18 11:09:59;;;;;;;8.85;3.58;;;28.50;75.30;;;;;;5050574;28;20055;-65
2022/06/18 11:12:34;;;;;;;4.50;2.25;;;28.60;75.30;;;;;;5052490;28;20057;-65
2022/06/18 11:15:01;;;;;;;6.97;2.70;;;28.40;75.60;;;;;;5035875;28;20089;-66
2022/06/18 11:17:31;;;;;;;5.13;2.47;;;28.40;75.20;;;;;;5019438;28;20045;-65
2022/06/18 11:20:30;;;;;;;5.72;2.30;;;28.60;75.80;;;;;;5047111;28;20061;-65
2022/06/18 11:22:56;;;;;;;6.07;2.40;;;28.30;76.00;;;;;;5009719;28;20064;-65
2022/06/18 11:25:30;;;;;;;6.10;2.58;;;28.70;75.60;;;;;;4998871;28;20057;-66
2022/06/18 11:27:57;;;;;;;6.03;2.50;;;28.80;74.40;;;;;;4982567;28;20053;-65
2022/06/18 11:30:38;;;;;;;6.05;2.53;;;28.80;75.80;;;;;;4977378;28;20046;-65
2022/06/18 11:33:04;;;;;;;4.40;2.28;;;28.80;75.80;;;;;;4995466;28;20071;-65
2022/06/18 11:35:31;;;;;;;6.13;2.20;;;28.60;75.30;;;;;;5014956;28;20124;-65
2022/06/18 11:38:20;;;;;;;5.82;2.47;;;28.60;75.50;;;;;;5015036;28;20380;-65
2022/06/18 11:40:53;;;;;;;4.75;2.20;;;28.50;73.90;;;;;;4977500;28;20427;-64
2022/06/18 11:43:30;;;;;;;5.00;2.22;;;28.60;75.70;;;;;;4994463;28;20054;-65
2022/06/18 11:45:58;;;;;;;6.78;2.50;;;28.60;75.60;;;;;;4978380;28;20120;-66
2022/06/18 11:48:40;;;;;;;5.70;2.45;;;28.40;75.30;;;;;;4980310;28;20054;-65
2022/06/18 11:51:21;;;;;;;4.47;2.25;;;28.50;74.00;;;;;;4978235;28;20459;-64
2022/06/18 11:53:54;;;;;;;4.88;2.30;;;28.60;74.40;;;;;;5016736;28;20049;-65
2022/06/18 11:56:26;;;;;;;4.80;2.30;;;28.60;74.20;;;;;;4978299;28;20085;-65
2022/06/18 11:59:16;;;;;;;4.10;2.20;;;28.40;75.60;;;;;;5021774;28;20557;-64
2022/06/18 12:02:10;;;;;;;3.90;2.33;;;28.80;74.30;;;;;;5009577;28;20047;-65
2022/06/18 12:04:52;;;;;;;5.53;2.10;;;28.70;76.10;;;;;;4997364;28;20132;-64
2022/06/18 12:07:30;;;;;;;4.38;2.20;;;28.60;76.00;;;;;;4968988;28;20061;-64
2022/06/18 12:09:56;;;;;;;3.80;2.30;;;28.30;75.70;;;;;;4960601;28;20062;-65
2022/06/18 12:12:31;;;;;;;4.78;2.22;;;28.70;75.70;;;;;;4991698;28;20109;-64
2022/06/18 12:15:05;;;;;;;4.57;2.10;;;28.40;74.50;;;;;;4975891;28;20450;-65
2022/06/18 12:17:48;;;;;;;4.30;2.30;;;28.40;74.40;;;;;;4972033;28;20453;-65
2022/06/18 12:20:23;;;;;;;4.43;2.20;;;28.60;74.50;;;;;;4940007;28;20065;-65
2022/06/18 12:23:19;;;;;;;6.95;2.15;;;28.50;75.80;;;;;;4958714;28;20098;-65
2022/06/18 12:26:06;;;;;;;6.45;2.25;;;28.40;74.70;;;;;;4941916;28;20074;-65
2022/06/18 12:28:47;;;;;;;5.53;2.15;;;28.40;75.10;;;;;;4969129;28;20039;-66
2022/06/18 12:31:16;;;;;;;5.95;2.33;;;28.40;75.00;;;;;;4963812;28;20050;-68
2022/06/18 12:34:03;;;;;;;4.82;1.80;;;28.20;76.30;;;;;;4963185;28;20054;-65
2022/06/18 12:36:50;;;;;;;4.97;1.90;;;28.40;75.20;;;;;;4979209;28;20134;-66
2022/06/18 12:39:32;;;;;;;3.65;1.80;;;28.10;74.80;;;;;;5008188;28;20092;-65
2022/06/18 12:42:33;;;;;;;5.90;1.90;;;28.10;74.80;;;;;;5035636;28;20395;-66
2022/06/18 12:45:20;;;;;;;4.60;1.58;;;28.40;75.40;;;;;;4998406;28;20056;-65
2022/06/18 12:47:58;;;;;;;4.88;1.95;;;28.00;75.00;;;;;;4983013;28;20058;-65
2022/06/18 12:50:41;;;;;;;6.18;1.75;;;28.30;74.90;;;;;;4957610;28;20423;-66
2022/06/18 12:53:32;;;;;;;5.13;2.00;;;28.20;74.90;;;;;;5014567;28;20124;-65
2022/06/18 12:56:15;;;;;;;6.90;1.98;;;28.20;74.90;;;;;;4984673;28;20124;-64
2022/06/18 12:58:53;;;;;;;;;;;28.30;75.10;;;;;;4983229;28;20050;-65
2022/06/18 13:01:34;;;;;;;6.63;2.40;;;28.30;76.80;;;;;;4997521;28;19925;-64
2022/06/18 13:04:30;;;;;;;3.85;1.80;;;28.30;75.10;;;;;;5012394;28;20089;-64
2022/06/18 13:06:58;;;;;;;5.28;2.05;;;28.20;75.10;;;;;;4981828;28;20064;-66
2022/06/18 13:09:42;;;;;;;4.18;1.90;;;28.30;76.20;;;;;;4998277;28;20128;-65
2022/06/18 13:12:16;;;;;;;5.80;2.05;;;28.30;74.70;;;;;;4997169;28;20112;-66
2022/06/18 13:15:12;;;;;;;6.07;2.03;;;28.40;75.10;;;;;;5030663;28;20058;-66
2022/06/18 13:17:43;;;;;;;5.10;1.80;;;28.60;75.40;;;;;;5030568;28;20053;-65
2022/06/18 13:20:12;;;;;;;7.70;1.92;;;28.40;76.50;;;;;;5013863;28;20062;-65